Bei Facebook empfehlenBei Twitter postenGoogle plusPinterest

Das Wetter im Erzgebirge am 08.07.2017

Wetter und Klima am 08.07.2017 Holzhau im Erzgebirge (630m ü.NN)
Letzte gemessene Temperatur und Uhrzeit der Messung23:45:00 Uhr13.30 °C
Temperatur (Maximum / Höchstwert) und Uhrzeit der Messung14:00:00 Uhr25.90 °C
Temperatur (Minimum / Tiefstwert) und Uhrzeit der Messung04:15:0011.90 °C
Errechneter Absolutwert der Temperaturschwankungen zwischen Tmin und Tmax des Tages14.00 K
Errechnete Tagesmitteltemperatur18.68229 °C
Gesamt - Niederschlag des Tages (in flüssiger Form)0.00 Liter / m²
Luftdruck (Maximum / Höchstwert) und Zeitpunkt der Messung22:45:00 Uhr1014.40 hPa
Luftdruck (Minimum / Tiefstwert) und Zeitpunkt der Messung05:30:00 Uhr1012.10 hPa
Errechneter Absolutwert der Luftdruckschwankungen des Tages2.30 hPa
Höchste gemessene Windgeschwindigkeit und Uhrzeit der Messung13:15:00 Uhr47.88 km/h
Errechnete Windhäufigkeit in Relation zu den Messwerten des Tages11.45833 %
Niedrigste Windkühle (Windchill) und Zeitpunkt der Messung04:15:00 Uhr11.90 °C
Taupunkt (Maximum / Höchstwert) und Uhrzeit der Messung11:15:00 Uhr17.70 °C
Taupunkt (Minimum / Tiefstwert) und Uhrzeit der Messung04:15:0010.60 °C
Anzahl der automatisch eingelesenen Messwerte 96

Detaillierte Wetter- und Klima- Messwerte für den 08.07.2017 in Holzhau im Erzgebirge (630m ü.NN)
ZeitTemperaturLuftdruckRel. LuftfeuchteWindWindrichtungWindchillTaupunktNiederschlag l/m²
23:45:0013.30 °C1014.00 hPa85.00 %10.80 °C 
23:30:0013.60 °C1014.00 hPa84.00 %11.00 °C 
23:15:0013.80 °C1014.10 hPa84.00 %11.10 °C 
23:00:0014.10 °C1014.30 hPa83.00 %11.30 °C 
22:45:0014.40 °C1014.40 hPa82.00 %11.40 °C 
22:30:0014.70 °C1014.30 hPa81.00 %11.50 °C 
22:15:0014.90 °C1014.10 hPa80.00 %11.50 °C 
22:00:0015.50 °C1014.10 hPa78.00 %11.70 °C 
21:45:0016.20 °C1014.10 hPa76.00 %12.00 °C 
21:30:0017.00 °C1014.00 hPa74.00 %12.30 °C 
21:15:0017.90 °C1013.60 hPa73.00 %13.00 °C 
21:00:0018.70 °C1013.60 hPa71.00 %13.30 °C 
20:45:0019.40 °C1013.40 hPa68.00 %13.30 °C 
20:30:0020.10 °C1013.40 hPa66.00 %13.60 °C 
20:15:0020.70 °C1013.30 hPa65.00 %13.90 °C 
20:00:0021.40 °C1013.30 hPa63.00 %14.10 °C 
19:45:0022.00 °C1013.10 hPa62.00 %14.40 °C 
19:30:0022.40 °C1013.20 hPa61.00 %43.92 km/hS23.30 °C14.50 °C 
19:15:0022.90 °C1013.10 hPa61.00 %15.00 °C 
19:00:0023.30 °C1013.20 hPa59.00 %27.36 km/hWNW24.70 °C14.80 °C 
18:45:0023.80 °C1013.10 hPa60.00 %15.60 °C 
18:30:0023.80 °C1013.10 hPa58.00 %14.40 km/hNNW23.80 °C15.00 °C 
18:15:0024.40 °C1013.10 hPa57.00 %15.30 °C 
18:00:0024.40 °C1013.00 hPa57.00 %15.30 °C 
17:45:0024.80 °C1013.00 hPa56.00 %15.40 °C 
17:30:0024.90 °C1013.30 hPa55.00 %15.20 °C 
17:15:0025.30 °C1013.20 hPa56.00 %15.90 °C 
17:00:0025.50 °C1013.10 hPa54.00 %15.50 °C 
16:45:0025.10 °C1013.20 hPa56.00 %15.70 °C 
16:30:0024.40 °C1013.30 hPa58.00 %15.60 °C 
16:15:0024.90 °C1013.20 hPa55.00 %15.20 °C 
16:00:0024.60 °C1013.20 hPa56.00 %15.20 °C 
15:45:0024.90 °C1013.30 hPa56.00 %15.50 °C 
15:30:0024.60 °C1013.30 hPa57.00 %15.50 °C 
15:15:0024.40 °C1013.30 hPa56.00 %15.10 °C 
15:00:0024.60 °C1013.50 hPa55.00 %15.00 °C 
14:45:0025.00 °C1013.30 hPa56.00 %15.60 °C 
14:30:0025.10 °C1013.30 hPa55.00 %9.00 km/hWNW25.10 °C15.40 °C 
14:15:0024.80 °C1013.50 hPa56.00 %15.40 °C 
14:00:0025.90 °C1013.40 hPa55.00 %16.20 °C 
13:45:0025.90 °C1013.50 hPa58.00 %17.00 °C 
13:30:0025.20 °C1013.50 hPa58.00 %10.44 km/hN25.20 °C16.30 °C 
13:15:0025.20 °C1013.60 hPa58.00 %47.88 km/hSW26.70 °C16.30 °C 
13:00:0024.40 °C1013.60 hPa63.00 %16.90 °C 
12:45:0024.60 °C1013.60 hPa63.00 %17.10 °C 
12:30:0023.10 °C1013.60 hPa66.00 %6.48 km/hNW23.10 °C16.40 °C 
12:15:0023.30 °C1013.60 hPa64.00 %9.00 km/hNW23.30 °C16.10 °C 
12:00:0022.90 °C1013.40 hPa66.00 %20.88 km/hNO24.30 °C16.20 °C 
11:45:0023.10 °C1013.40 hPa68.00 %37.44 km/hW24.30 °C16.90 °C 
11:30:0022.90 °C1013.40 hPa69.00 %6.48 km/hWSW22.90 °C16.90 °C 
11:15:0021.30 °C1013.30 hPa80.00 %17.70 °C 
11:00:0020.70 °C1013.20 hPa77.00 %16.50 °C 
10:45:0021.10 °C1013.20 hPa78.00 %17.10 °C 
10:30:0020.60 °C1013.10 hPa79.00 %16.80 °C 
10:15:0020.20 °C1013.20 hPa79.00 %16.40 °C 
10:00:0021.10 °C1012.90 hPa79.00 %17.30 °C 
09:45:0020.00 °C1012.90 hPa83.00 %17.00 °C 
09:30:0019.50 °C1013.00 hPa86.00 %17.10 °C 
09:15:0019.30 °C1012.50 hPa88.00 %17.30 °C 
09:00:0018.40 °C1012.50 hPa90.00 %16.70 °C 
08:45:0017.90 °C1012.40 hPa92.00 %16.60 °C 
08:30:0017.20 °C1012.50 hPa92.00 %15.90 °C 
08:15:0016.90 °C1012.30 hPa93.00 %15.80 °C 
08:00:0016.70 °C1012.30 hPa94.00 %15.70 °C 
07:45:0016.40 °C1012.30 hPa94.00 %15.40 °C 
07:30:0016.20 °C1012.20 hPa94.00 %15.20 °C 
07:15:0016.00 °C1012.30 hPa95.00 %15.20 °C 
07:00:0015.80 °C1012.30 hPa95.00 %15.00 °C 
06:45:0015.30 °C1012.30 hPa95.00 %14.50 °C 
06:30:0014.60 °C1012.30 hPa94.00 %13.60 °C 
06:15:0014.30 °C1012.30 hPa94.00 %13.30 °C 
06:00:0013.90 °C1012.20 hPa94.00 %13.00 °C 
05:45:0013.30 °C1012.20 hPa94.00 %12.40 °C 
05:30:0012.70 °C1012.10 hPa94.00 %11.80 °C 
05:15:0012.40 °C1012.20 hPa93.00 %11.30 °C 
05:00:0012.10 °C1012.20 hPa93.00 %11.00 °C 
04:45:0012.10 °C1012.20 hPa93.00 %11.00 °C 
04:30:0012.10 °C1012.20 hPa93.00 %11.00 °C 
04:15:0011.90 °C1012.20 hPa92.00 %10.60 °C 
04:00:0012.10 °C1012.40 hPa92.00 %10.80 °C 
03:45:0012.30 °C1012.40 hPa92.00 %11.00 °C 
03:30:0012.50 °C1012.30 hPa92.00 %11.20 °C 
03:15:0012.80 °C1012.50 hPa93.00 %11.70 °C 
03:00:0012.90 °C1012.60 hPa93.00 %11.80 °C 
02:45:0012.80 °C1012.60 hPa93.00 %11.70 °C 
02:30:0012.60 °C1012.50 hPa92.00 %11.30 °C 
02:15:0012.70 °C1012.50 hPa92.00 %11.40 °C 
02:00:0012.90 °C1012.60 hPa92.00 %11.60 °C 
01:45:0013.20 °C1012.40 hPa92.00 %11.90 °C 
01:30:0013.20 °C1012.40 hPa92.00 %11.90 °C 
01:15:0013.20 °C1012.50 hPa91.00 %11.80 °C 
01:00:0013.30 °C1012.40 hPa91.00 %11.90 °C 
00:45:0013.50 °C1012.40 hPa91.00 %12.10 °C 
00:30:0013.60 °C1012.50 hPa91.00 %12.20 °C 
00:15:0013.90 °C1012.40 hPa91.00 %12.50 °C 
00:00:0013.90 °C1012.70 hPa91.00 %12.50 °C 

Permanenter Link zu dieser Seite: Wetter im Erzgebirge am 08.07.2017
Performance-Info: Die Erstellung der Seite / Statistik(en) / Tabelle(n) erforderte 5 Datenbankserver-Abfrage(n) und dauerte 103 Millisekunden. (Dieser Messwert ist von der Gesamt-Auslastung des Servers abhängig.)
Erzgebirge - Wetter | Erzgebirge - Wetter (Mobilgeräte) | Komplette Klimadatenbank